createdAt,value
2017-04-05T00:03:00.908Z,77.4
2017-04-05T00:09:17.082Z,77.3
2017-04-05T00:33:18.193Z,77.3
2017-04-05T00:34:20.398Z,77.4
2017-04-05T00:35:22.610Z,77.3
2017-04-05T00:37:28.367Z,77.4
2017-04-05T00:38:30.959Z,77.5
2017-04-05T00:39:33.300Z,77.5
2017-04-05T00:40:36.147Z,77.4
2017-04-05T00:41:38.513Z,77.4
2017-04-05T00:42:41.353Z,77.3
2017-04-05T00:43:44.503Z,77.5
2017-04-05T00:44:46.845Z,77.4
2017-04-05T00:45:49.183Z,77.4
2017-04-05T00:46:52.023Z,77.3
2017-04-05T00:47:54.862Z,77.3
2017-04-05T00:48:57.501Z,77.3
2017-04-05T00:49:59.703Z,77.3
2017-04-05T00:51:02.546Z,77.4
2017-04-05T00:52:05.253Z,77.3
2017-04-05T00:53:08.664Z,77.4
2017-04-05T00:54:10.800Z,77.3
2017-04-05T00:55:13.145Z,77.4
2017-04-05T00:57:18.403Z,77.4
2017-04-05T00:58:21.250Z,77.3
2017-04-05T00:59:23.840Z,77.3
2017-04-05T01:02:31.864Z,77.4
2017-04-05T01:03:34.204Z,77.3
2017-04-05T01:04:37.053Z,77.5
2017-04-05T01:05:39.393Z,77.6
2017-04-05T01:06:42.111Z,77.6
2017-04-05T01:07:44.992Z,77.6
2017-04-05T01:08:47.331Z,77.7
2017-04-05T01:09:50.180Z,77.6
2017-04-05T01:10:53.020Z,77.5
2017-04-05T01:11:55.730Z,77.5
2017-04-05T01:14:01.237Z,77.5
2017-04-05T01:15:03.445Z,77.5
2017-04-05T01:16:06.578Z,77.6
2017-04-05T01:17:09.355Z,77.6
2017-04-05T01:18:11.193Z,77.7
2017-04-05T01:19:14.294Z,77.6
2017-04-05T01:20:16.506Z,77.6
2017-04-05T01:21:19.345Z,77.6
2017-04-05T01:22:22.193Z,77.6
2017-04-05T01:23:24.536Z,77.5
2017-04-05T01:24:27.634Z,77.5
2017-04-05T01:25:30.034Z,77.5
2017-04-05T01:26:32.381Z,77.6
2017-04-05T01:27:35.226Z,77.5
2017-04-05T01:28:37.934Z,77.6
2017-04-05T01:29:40.523Z,77.7
2017-04-05T01:30:43.375Z,77.6
2017-04-05T01:31:45.777Z,77.6
2017-04-05T01:32:48.656Z,77.6
2017-04-05T01:33:50.997Z,77.6
2017-04-05T01:34:54.096Z,77.5
2017-04-05T01:35:56.302Z,77.5
2017-04-05T01:36:59.149Z,77.4
2017-04-05T01:38:01.493Z,77.4
2017-04-05T01:39:04.336Z,77.4
2017-04-05T01:40:07.432Z,77.4
2017-04-05T01:41:09.637Z,77.5
2017-04-05T01:42:12.479Z,77.6
2017-04-05T01:43:14.825Z,77.7
2017-04-05T01:44:17.532Z,77.6
2017-04-05T01:45:20.362Z,77.7
2017-04-05T01:47:25.613Z,77.8
2017-04-05T01:48:27.957Z,77.7
2017-04-05T01:50:33.519Z,77.8
2017-04-05T01:51:35.863Z,77.7
2017-04-05T01:52:38.702Z,77.6
2017-04-05T01:54:43.948Z,77.6
2017-04-05T01:55:47.043Z,77.7
2017-04-05T01:56:49.385Z,77.6
2017-04-05T01:58:54.501Z,77.8
2017-04-05T01:59:57.345Z,77.8
2017-04-05T02:00:59.938Z,77.7
2017-04-05T02:02:02.282Z,77.7
2017-04-05T02:03:05.129Z,77.7
2017-04-05T02:04:07.843Z,77.6
2017-04-05T02:05:10.186Z,77.6
2017-04-05T02:06:13.284Z,77.6
2017-04-05T02:07:15.626Z,77.5
2017-04-05T02:08:18.472Z,77.6
2017-04-05T02:09:20.819Z,77.6
2017-04-05T02:10:23.676Z,77.7
2017-04-05T02:12:29.187Z,77.8
2017-04-05T02:14:34.435Z,77.7
2017-04-05T02:15:36.637Z,77.7
2017-04-05T02:16:39.480Z,77.6
2017-04-05T02:17:42.576Z,77.6
2017-04-05T02:18:44.916Z,77.7
2017-04-05T02:19:47.259Z,77.7
2017-04-05T02:20:50.106Z,77.7
2017-04-05T02:21:52.819Z,77.8
2017-04-05T02:22:55.412Z,77.9
2017-04-05T02:23:58.260Z,77.8
2017-04-05T02:25:00.467Z,77.8
2017-04-05T02:26:03.310Z,77.8
2017-04-05T02:27:06.157Z,77.8
2017-04-05T02:28:08.746Z,77.8
2017-04-05T02:29:11.088Z,77.8
2017-04-05T02:30:13.932Z,77.8
2017-04-05T02:31:16.274Z,77.8
2017-04-05T02:32:19.118Z,77.9
2017-04-05T02:33:22.213Z,77.9
2017-04-05T02:34:24.550Z,78.1
2017-04-05T02:35:26.896Z,78
2017-04-05T02:36:29.741Z,78.1
2017-04-05T02:37:32.614Z,78.1
2017-04-05T02:38:35.208Z,78
2017-04-05T02:39:37.545Z,77.9
2017-04-05T02:40:40.392Z,77.9
2017-04-05T02:41:42.733Z,78
2017-04-05T02:42:45.581Z,78
2017-04-05T02:43:48.677Z,78
2017-04-05T02:44:50.887Z,78
2017-04-05T02:45:53.726Z,78
2017-04-05T03:10:57.194Z,78.7
2017-04-05T03:14:04.898Z,78.7
2017-04-05T03:15:07.233Z,78.7
2017-04-05T03:16:10.324Z,78.7
2017-04-05T03:19:17.836Z,79.1
2017-04-05T03:21:23.336Z,78.9
2017-04-05T03:22:26.048Z,79
2017-04-05T03:23:28.385Z,79
2017-04-05T03:24:31.776Z,79
2017-04-05T03:25:33.608Z,79.1
2017-04-05T03:26:36.701Z,79.1
2017-04-05T03:28:41.944Z,79
2017-04-05T03:29:44.279Z,79.1
2017-04-05T03:30:47.118Z,79.2
2017-04-05T03:31:49.570Z,79.2
2017-04-05T03:32:52.408Z,79.3
2017-04-05T03:33:54.739Z,79.2
2017-04-05T03:34:57.583Z,79.5
2017-04-05T03:36:00.424Z,79.4
2017-04-05T03:38:05.784Z,79.7
2017-04-05T03:39:07.985Z,79.6
2017-04-05T03:40:10.822Z,79.8
2017-04-05T03:41:13.156Z,79.7
2017-04-05T03:42:15.997Z,79.8
2017-04-05T03:43:19.084Z,79.9
2017-04-05T03:44:21.428Z,80.1
2017-04-05T03:45:23.760Z,79.9
2017-04-05T03:46:26.597Z,80
2017-04-05T03:47:29.299Z,80
2017-04-05T03:48:31.881Z,79.9
2017-04-05T03:49:34.219Z,80.1
2017-04-05T03:50:37.057Z,80.2
2017-04-05T03:51:39.892Z,80.2
2017-04-05T03:52:42.459Z,80
2017-04-05T03:53:45.051Z,80.2
2017-04-05T03:55:50.160Z,80.3
2017-04-05T03:56:53.048Z,80.3
2017-04-05T03:57:55.756Z,80.4
2017-04-05T03:58:58.209Z,80.7
2017-04-05T04:00:00.915Z,80.5
2017-04-05T04:01:03.250Z,80.4
2017-04-05T04:02:06.157Z,80.5
2017-04-05T04:03:08.491Z,80.3
2017-04-05T04:04:11.585Z,80.6
2017-04-05T04:05:13.916Z,80.4
2017-04-05T04:06:16.761Z,80.4
2017-04-05T04:07:19.090Z,80.7
2017-04-05T04:08:21.924Z,80.7
2017-04-05T04:09:25.070Z,80.6
2017-04-05T04:10:26.910Z,80.5
2017-04-05T04:11:29.809Z,80.4
2017-04-05T04:12:32.149Z,80.7
2017-04-05T04:13:34.989Z,80.5
2017-04-05T04:14:38.083Z,80.6
2017-04-05T04:15:40.416Z,80.7
2017-04-05T04:16:43.119Z,80.9
2017-04-05T04:17:45.458Z,81
2017-04-05T04:18:48.295Z,80.9
2017-04-05T04:19:50.880Z,80.9
2017-04-05T04:21:56.169Z,81.2
2017-04-05T04:22:58.505Z,81.3
2017-04-05T04:24:01.348Z,81.3
2017-04-05T04:25:04.438Z,81.2
2017-04-05T04:27:09.186Z,81.1
2017-04-05T04:28:12.071Z,81
2017-04-05T04:29:14.403Z,81
2017-04-05T04:30:17.491Z,81.2
2017-04-05T04:31:19.825Z,81.2
2017-04-05T04:32:22.164Z,81.1
2017-04-05T04:33:25.001Z,81.2
2017-04-05T04:36:33.408Z,81.1
2017-04-05T04:37:35.742Z,81.2
2017-04-05T04:38:38.081Z,81.3
2017-04-05T04:39:40.921Z,81.3
2017-04-05T04:40:43.251Z,81.8
2017-04-05T04:41:46.339Z,81.6
2017-04-05T04:42:48.675Z,81.9
2017-04-05T04:43:51.508Z,81.6
2017-04-05T04:44:53.842Z,81.6
2017-04-05T04:45:56.683Z,81.6
2017-04-05T04:46:59.270Z,81.7
2017-04-05T04:48:01.608Z,81.8
2017-04-05T04:49:04.450Z,81.7
2017-04-05T04:50:07.150Z,82
2017-04-05T04:51:09.485Z,82.2
2017-04-05T04:52:12.578Z,82
2017-04-05T04:53:14.783Z,82
2017-04-05T04:54:17.690Z,82
2017-04-05T04:55:20.026Z,82.1
2017-04-05T04:56:22.863Z,82.2
2017-04-05T04:57:25.822Z,82
2017-04-05T04:58:28.154Z,82.1
2017-04-05T04:59:30.998Z,82.1
2017-04-05T05:00:33.331Z,82.1
2017-04-05T05:01:36.169Z,82
2017-04-05T05:02:38.815Z,82.1
2017-04-05T05:03:41.162Z,81.9
2017-04-05T05:04:43.867Z,82
2017-04-05T05:05:46.706Z,81.9
2017-04-05T05:06:49.050Z,81.8
2017-04-05T05:07:52.143Z,81.8
2017-04-05T05:08:54.342Z,82.1
2017-04-05T05:09:57.180Z,82.1
2017-04-05T05:10:59.885Z,82.1
2017-04-05T05:12:02.222Z,82.1
2017-04-05T05:13:05.363Z,82.2
2017-04-05T05:14:07.561Z,82.1
2017-04-05T05:15:10.263Z,82.1
2017-04-05T05:16:12.966Z,82.2
2017-04-05T05:17:15.301Z,82.1
2017-04-05T05:18:18.391Z,82.1
2017-04-05T05:19:20.728Z,81.9
2017-04-05T05:20:23.069Z,81.8
2017-04-05T05:21:25.912Z,81.7
2017-04-05T05:22:28.687Z,81.7
2017-04-05T05:23:31.827Z,81.5
2017-04-05T05:24:33.661Z,81.6
2017-04-05T05:25:36.499Z,81.5
2017-04-05T05:26:38.838Z,81.4
2017-04-05T05:27:41.691Z,81.4
2017-04-05T05:28:44.783Z,81.2
2017-04-05T05:30:49.530Z,81.1
2017-04-05T05:31:52.369Z,81.1
2017-04-05T05:32:54.708Z,81.1
2017-04-05T05:33:57.802Z,80.9
2017-04-05T05:35:00.136Z,80.9
2017-04-05T05:36:02.972Z,80.8
2017-04-05T05:37:05.305Z,80.8
2017-04-05T05:38:08.145Z,80.8
2017-04-05T05:39:10.733Z,80.7
2017-04-05T05:40:13.443Z,80.7
2017-04-05T05:41:15.641Z,80.6
2017-04-05T05:42:18.483Z,80.7
2017-04-05T05:43:21.328Z,80.6
2017-04-05T05:45:26.822Z,80.5
2017-04-05T05:46:29.164Z,80.4
2017-04-05T05:47:31.499Z,80.4
2017-04-05T05:48:34.341Z,80.4
2017-04-05T05:49:37.183Z,80.3
2017-04-05T05:50:39.814Z,80.3
2017-04-05T05:51:42.018Z,80.1
2017-04-05T05:52:44.859Z,80
2017-04-05T05:53:47.699Z,80.1
2017-04-05T05:54:50.033Z,80
2017-04-05T05:55:53.123Z,79.8
2017-04-05T05:56:55.465Z,79.4
2017-04-05T05:57:57.802Z,79.2
2017-04-05T05:59:00.507Z,78.9
2017-04-05T06:00:03.212Z,78.7
2017-04-05T06:01:06.032Z,78.6
2017-04-05T06:02:08.367Z,78.5
2017-04-05T06:02:38.997Z,78.5
2017-04-05T06:03:11.141Z,78.1
2017-04-05T06:04:13.978Z,78
2017-04-05T06:05:16.322Z,77.8
2017-04-05T06:06:19.471Z,77.3
2017-04-05T06:07:21.809Z,77.1
2017-04-05T06:08:24.520Z,76.8
2017-04-05T06:09:26.862Z,76.5
2017-04-05T06:10:29.703Z,76.2
2017-04-05T06:12:35.198Z,75.6
2017-04-05T06:13:37.539Z,75
2017-04-05T06:14:39.879Z,74.3
2017-04-05T06:15:42.588Z,74.3
2017-04-05T06:16:45.468Z,73.8
2017-04-05T06:17:48.061Z,73.6
2017-04-05T06:18:50.902Z,72.9
2017-04-05T06:19:53.236Z,72.2
2017-04-05T06:20:56.002Z,73
2017-04-05T06:21:58.339Z,73
2017-04-05T06:23:01.431Z,72.9
2017-04-05T06:24:03.772Z,72.9
2017-04-05T06:25:06.615Z,72.8
2017-04-05T06:26:08.951Z,72.8
2017-04-05T06:27:11.654Z,72.7
2017-04-05T06:28:14.700Z,72.8
2017-04-05T06:29:17.032Z,72.2
2017-04-05T06:30:19.934Z,71.9
2017-04-05T06:31:22.277Z,71.5
2017-04-05T06:32:25.121Z,71.2
2017-04-05T06:33:27.712Z,70.8
2017-04-05T06:34:30.047Z,70.7
2017-04-05T06:35:32.884Z,70.4
2017-04-05T06:36:35.730Z,70.3
2017-04-05T06:37:38.445Z,70
2017-04-05T06:38:41.035Z,69.7
2017-04-05T06:39:43.370Z,69.3
2017-04-05T06:40:46.210Z,68.6
2017-04-05T06:41:48.549Z,68.7
2017-04-05T06:42:51.388Z,68.5
2017-04-05T06:43:54.481Z,68.5
2017-04-05T06:44:56.816Z,68
2017-04-05T06:45:59.020Z,67.9
2017-04-05T06:47:01.860Z,67.8
2017-04-05T06:48:04.695Z,67.5
2017-04-05T06:49:07.792Z,67.5
2017-04-05T06:51:12.567Z,67.2
2017-04-05T06:52:15.273Z,67.3
2017-04-05T06:53:18.152Z,66.7
2017-04-05T06:54:20.739Z,66.5
2017-04-05T06:55:23.091Z,66.2
2017-04-05T06:56:25.934Z,66.4
2017-04-05T06:57:28.779Z,65.9
2017-04-05T06:58:31.117Z,66.1
2017-04-05T06:59:34.207Z,65.9
2017-04-05T07:00:36.547Z,65.6
2017-04-05T07:01:39.392Z,64.8
2017-04-05T07:02:41.731Z,65.1
2017-04-05T07:03:44.572Z,64.7
2017-04-05T07:04:47.157Z,64.6
2017-04-05T07:05:49.997Z,64.5
2017-04-05T07:06:52.336Z,64.2
2017-04-05T07:07:55.173Z,63.9
2017-04-05T07:08:57.876Z,63.8
2017-04-05T07:10:00.330Z,63.8
2017-04-05T07:11:03.043Z,63.9
2017-04-05T07:12:05.884Z,63.4
2017-04-05T07:13:08.219Z,62.9
2017-04-05T07:14:11.065Z,62.9
2017-04-05T07:15:14.157Z,63
2017-04-05T07:16:16.358Z,62.5
2017-04-05T07:17:19.194Z,62.4
2017-04-05T07:18:21.461Z,62
2017-04-05T07:19:24.166Z,61.5
2017-04-05T07:20:27.257Z,61.7
2017-04-05T07:22:32.505Z,61.7
2017-04-05T07:23:34.849Z,61.8
2017-04-05T07:24:37.693Z,61.3
2017-04-05T07:25:40.785Z,60.7
2017-04-05T07:26:43.127Z,60.7
2017-04-05T07:27:45.966Z,59.8
2017-04-05T07:28:48.308Z,60
2017-04-05T07:29:51.151Z,59.6
2017-04-05T07:30:54.243Z,59.6
2017-04-05T07:31:56.582Z,59.7
2017-04-05T07:32:58.922Z,59.6
2017-04-05T07:34:01.775Z,59.4
2017-04-05T07:36:07.183Z,58.6
2017-04-05T07:37:09.890Z,57.9
2017-04-05T07:38:12.091Z,57.7
2017-04-05T07:39:14.934Z,58.3
2017-04-05T07:40:17.776Z,58.2
2017-04-05T07:41:20.869Z,58
2017-04-05T07:42:23.074Z,56.9
2017-04-05T07:43:25.786Z,57.2
2017-04-05T07:44:28.624Z,57.6
2017-04-05T07:45:30.964Z,57.9
2017-04-05T07:46:34.109Z,57.6
2017-04-05T07:47:36.312Z,56.9
2017-04-05T07:48:39.155Z,56.9
2017-04-05T07:49:42.057Z,56.9
2017-04-05T07:50:44.393Z,58
2017-04-05T07:51:47.485Z,58
2017-04-05T07:52:49.826Z,57.9
2017-04-05T07:53:52.666Z,57.8
2017-04-05T07:54:55.507Z,57.9
2017-04-05T07:55:57.845Z,58
2017-04-05T07:57:00.807Z,57.9
2017-04-05T07:59:06.055Z,57.3
2017-04-05T08:00:08.899Z,57.6
2017-04-05T08:01:11.238Z,57.5
2017-04-05T08:02:14.330Z,58
2017-04-05T08:03:16.667Z,58
2017-04-05T08:04:19.370Z,58
2017-04-05T08:05:22.214Z,58.1
2017-04-05T08:06:24.555Z,58.2
2017-04-05T08:07:27.514Z,58
2017-04-05T08:08:30.360Z,57.8
2017-04-05T08:09:32.561Z,57.6
2017-04-05T08:10:35.404Z,57.5
2017-04-05T08:11:38.245Z,57.3
2017-04-05T08:12:41.335Z,56.7
2017-04-05T08:13:43.670Z,57
2017-04-05T08:14:46.021Z,56.8
2017-04-05T08:15:48.863Z,55.8
2017-04-05T08:16:51.569Z,55.8
2017-04-05T08:17:54.662Z,55.6
2017-04-05T08:18:57.001Z,55.7
2017-04-05T08:19:59.574Z,55.5
2017-04-05T08:21:02.441Z,55.1
2017-04-05T08:22:04.780Z,54.6
2017-04-05T08:23:07.877Z,54.2
2017-04-05T08:24:10.216Z,54.3
2017-04-05T08:25:13.058Z,53.6
2017-04-05T08:26:15.904Z,54
2017-04-05T08:27:18.607Z,52.9
2017-04-05T08:28:21.198Z,53.5
2017-04-05T08:29:23.595Z,53.6
2017-04-05T08:30:26.434Z,53.9
2017-04-05T08:31:29.278Z,53.3
2017-04-05T08:32:32.119Z,52.8
2017-04-05T08:33:34.753Z,53.6
2017-04-05T08:34:36.952Z,53.1
2017-04-05T08:35:39.795Z,54.7
2017-04-05T08:36:42.636Z,55.5
2017-04-05T08:37:45.506Z,56.2
2017-04-05T08:38:48.093Z,56.8
2017-04-05T08:39:50.938Z,55.9
2017-04-05T08:40:53.275Z,56.9
2017-04-05T08:41:56.121Z,57.1
2017-04-05T08:42:58.968Z,57
2017-04-05T08:44:01.557Z,57.4
2017-04-05T08:45:04.416Z,56.8
2017-04-05T08:46:06.751Z,57.2
2017-04-05T08:47:09.595Z,57.1
2017-04-05T08:49:15.099Z,57.6
2017-04-05T08:50:17.445Z,58
2017-04-05T08:51:20.291Z,58.3
2017-04-05T08:52:23.000Z,57.5
2017-04-05T08:53:25.840Z,58.1
2017-04-05T08:54:28.438Z,58.3
2017-04-05T08:55:31.282Z,58.4
2017-04-05T08:56:33.626Z,58.8
2017-04-05T08:57:36.332Z,58.9
2017-04-05T08:58:39.173Z,59.3
2017-04-05T08:59:42.140Z,59.3
2017-04-05T09:00:44.476Z,59.2
2017-04-05T09:01:47.183Z,59.3
2017-04-05T09:02:50.026Z,59.5
2017-04-05T09:03:52.369Z,59.6
2017-04-05T09:04:55.464Z,59.8
2017-04-05T09:05:58.174Z,59.8
2017-04-05T09:07:00.514Z,59.6
2017-04-05T09:08:03.363Z,59.6
2017-04-05T09:09:06.213Z,59.5
2017-04-05T09:10:08.801Z,59.5
2017-04-05T09:11:11.645Z,59.2
2017-04-05T09:12:13.986Z,59.1
2017-04-05T09:13:16.833Z,59
2017-04-05T09:14:19.679Z,58.8
2017-04-05T09:15:22.269Z,58.6
2017-04-05T09:16:24.973Z,58.7
2017-04-05T09:17:27.314Z,58.4
2017-04-05T09:19:33.072Z,57.9
2017-04-05T09:20:35.666Z,58.1
2017-04-05T09:21:38.376Z,57.3
2017-04-05T09:22:40.722Z,57.7
2017-04-05T09:23:43.571Z,58.1
2017-04-05T09:24:46.416Z,58.2
2017-04-05T09:25:49.511Z,57.9
2017-04-05T09:27:54.124Z,55.7
2017-04-05T09:28:56.966Z,55.9
2017-04-05T09:30:00.381Z,56.2
2017-04-05T09:31:03.034Z,55.8
2017-04-05T09:32:05.370Z,55.1
2017-04-05T09:33:07.573Z,56.1
2017-04-05T09:34:10.417Z,55.8
2017-04-05T09:35:13.865Z,55.5
2017-04-05T09:36:15.951Z,55.2
2017-04-05T09:37:18.794Z,55.3
2017-04-05T09:38:21.146Z,55.5
2017-04-05T09:39:23.994Z,55.6
2017-04-05T09:40:26.837Z,55.3
2017-04-05T09:41:29.422Z,54.6
2017-04-05T09:42:31.761Z,54.2
2017-04-05T09:43:34.599Z,54
2017-04-05T09:44:37.442Z,54.2
2017-04-05T09:45:40.283Z,54
2017-04-05T09:46:42.868Z,53.7
2017-04-05T09:47:45.200Z,54.2
2017-04-05T09:48:48.273Z,54.1
2017-04-05T09:49:51.162Z,53.7
2017-04-05T09:50:53.498Z,53.4
2017-04-05T09:51:56.642Z,53.7
2017-04-05T09:52:58.993Z,54.2
2017-04-05T09:54:01.704Z,53.7
2017-04-05T09:55:04.040Z,53.7
2017-04-05T09:56:06.890Z,53.1
2017-04-05T09:57:09.987Z,53.6
2017-04-05T09:58:12.319Z,53.2
2017-04-05T09:59:15.771Z,53.3
2017-04-05T10:01:20.511Z,53.2
2017-04-05T10:02:23.358Z,52.6
2017-04-05T10:03:25.697Z,52.8
2017-04-05T10:04:28.557Z,53.1
2017-04-05T10:05:31.403Z,53.1
2017-04-05T10:06:33.743Z,53.5
2017-04-05T10:07:36.835Z,53.6
2017-04-05T10:08:39.229Z,53.6
2017-04-05T10:09:42.066Z,53.6
2017-04-05T10:10:44.905Z,53.4
2017-04-05T10:11:47.613Z,53.1
2017-04-05T10:12:50.577Z,53.6
2017-04-05T10:13:52.789Z,54.2
2017-04-05T10:15:58.033Z,53.6
2017-04-05T10:17:00.951Z,53.9
2017-04-05T10:18:04.044Z,53.6
2017-04-05T10:19:06.386Z,53.3
2017-04-05T10:20:08.726Z,54
2017-04-05T10:21:11.570Z,54.1
2017-04-05T10:22:14.413Z,54
2017-04-05T10:23:17.561Z,53.7
2017-04-05T10:24:19.952Z,53.5
2017-04-05T10:25:22.294Z,52.2
2017-04-05T10:26:25.002Z,51.3
2017-04-05T10:27:27.847Z,51.8
2017-04-05T10:28:30.996Z,52
2017-04-05T10:29:33.335Z,52.1
2017-04-05T10:30:35.673Z,51.9
2017-04-05T10:31:38.514Z,51.5
2017-04-05T10:32:41.355Z,51.4
2017-04-05T10:33:44.187Z,51.5
2017-04-05T10:34:46.893Z,51.6
2017-04-05T10:35:49.229Z,51.7
2017-04-05T10:38:57.635Z,51.5
2017-04-05T10:39:59.966Z,51.9
2017-04-05T10:41:02.800Z,52.4
2017-04-05T10:42:05.649Z,52.7
2017-04-05T10:43:08.359Z,52.9
2017-04-05T10:44:11.456Z,53.2
2017-04-05T10:45:13.660Z,53.3
2017-04-05T10:46:16.929Z,53.7
2017-04-05T10:47:19.271Z,53.6
2017-04-05T10:48:21.609Z,53.2
2017-04-05T10:49:24.701Z,53.4
2017-04-05T10:50:27.045Z,54
2017-04-05T10:51:29.749Z,53.5
2017-04-05T10:52:32.587Z,53.9
2017-04-05T10:53:35.431Z,53.3
2017-04-05T10:54:38.575Z,53.6
2017-04-05T10:55:40.911Z,53.3
2017-04-05T10:56:43.255Z,53.2
2017-04-05T10:57:46.095Z,52.9
2017-04-05T10:58:48.934Z,53.1
2017-04-05T11:00:54.434Z,53.2
2017-04-05T11:01:57.146Z,53.3
2017-04-05T11:02:59.484Z,53.4
2017-04-05T11:04:02.327Z,53.1
2017-04-05T11:05:05.170Z,52.7
2017-04-05T11:06:07.760Z,52.2
2017-04-05T11:07:10.467Z,52.5
2017-04-05T11:08:13.306Z,52.6
2017-04-05T11:09:15.509Z,52.3
2017-04-05T11:10:18.350Z,52.3
2017-04-05T11:11:21.440Z,52.7
2017-04-05T11:12:23.781Z,52.2
2017-04-05T11:13:26.676Z,52.8
2017-04-05T11:14:29.515Z,52.2
2017-04-05T11:15:32.085Z,52.1
2017-04-05T11:16:34.907Z,52.2
2017-04-05T11:17:37.614Z,51.6
2017-04-05T11:18:39.946Z,52
2017-04-05T11:19:42.791Z,51.8
2017-04-05T11:20:45.628Z,52
2017-04-05T11:21:48.723Z,51.5
2017-04-05T11:22:51.063Z,52
2017-04-05T11:23:53.907Z,52.5
2017-04-05T11:24:56.251Z,53.1
2017-04-05T11:25:58.967Z,53.3
2017-04-05T11:27:01.924Z,53.5
2017-04-05T11:28:04.772Z,53.7
2017-04-05T11:29:07.116Z,54
2017-04-05T11:30:09.960Z,53.6
2017-04-05T11:31:12.805Z,53.2
2017-04-05T11:32:15.398Z,52.8
2017-04-05T11:33:18.107Z,53
2017-04-05T11:34:20.946Z,53
2017-04-05T11:35:23.284Z,53.6
2017-04-05T11:36:26.170Z,53
2017-04-05T11:37:29.320Z,53
2017-04-05T11:38:31.721Z,52.1
2017-04-05T11:39:34.425Z,52.7
2017-04-05T11:40:36.767Z,52.3
2017-04-05T11:41:39.610Z,52.1
2017-04-05T11:42:42.573Z,52.3
2017-04-05T11:43:44.914Z,51.9
2017-04-05T11:44:47.758Z,51.7
2017-04-05T11:45:50.597Z,52.3
2017-04-05T11:46:53.300Z,52.2
2017-04-05T11:47:56.398Z,52.6
2017-04-05T11:48:58.601Z,52.8
2017-04-05T11:50:01.182Z,52.8
2017-04-05T11:51:04.031Z,53
2017-04-05T11:52:06.871Z,53
2017-04-05T11:53:09.979Z,52.2
2017-04-05T11:55:14.597Z,52.2
2017-04-05T11:56:17.672Z,51.7
2017-04-05T11:57:20.380Z,51.5
2017-04-05T11:58:23.522Z,51.6
2017-04-05T11:59:25.872Z,51.3
2017-04-05T12:00:28.235Z,51.7
2017-04-05T12:01:31.078Z,51.3
2017-04-05T12:02:34.500Z,51.2
2017-04-05T12:03:36.582Z,51.4
2017-04-05T12:04:39.422Z,51.8
2017-04-05T12:05:41.759Z,52.2
2017-04-05T12:06:44.533Z,51.9
2017-04-05T12:07:47.377Z,52.2
2017-04-05T12:08:50.387Z,52.3
2017-04-05T12:09:52.590Z,52.3
2017-04-05T12:10:55.293Z,52.9
2017-04-05T12:11:57.997Z,52.5
2017-04-05T12:13:01.408Z,52.5
2017-04-05T12:14:03.997Z,52.8
2017-04-05T12:15:06.209Z,52.2
2017-04-05T12:16:09.054Z,52.1
2017-04-05T12:17:11.398Z,52.1
2017-04-05T12:18:14.108Z,52.3
2017-04-05T12:20:19.976Z,51.7
2017-04-05T12:21:22.311Z,51.3
2017-04-05T12:22:25.014Z,51.5
2017-04-05T12:23:27.860Z,51.2
2017-04-05T12:24:30.568Z,50.4
2017-04-05T12:25:33.710Z,50.5
2017-04-05T12:26:35.778Z,50.6
2017-04-05T12:27:38.626Z,50.2
2017-04-05T12:28:41.197Z,50.1
2017-04-05T12:29:44.097Z,49.6
2017-04-05T12:30:47.186Z,49.9
2017-04-05T12:31:49.579Z,49.9
2017-04-05T12:32:52.420Z,49.7
2017-04-05T12:33:55.324Z,49.4
2017-04-05T12:34:57.667Z,49.3
2017-04-05T12:36:00.809Z,49.6
2017-04-05T12:37:03.012Z,49.4
2017-04-05T12:38:05.851Z,49.6
2017-04-05T12:39:08.693Z,49.5
2017-04-05T12:40:11.035Z,49.6
2017-04-05T12:41:14.043Z,50.1
2017-04-05T12:42:16.382Z,49.8
2017-04-05T12:45:24.634Z,49.9
2017-04-05T12:46:27.727Z,50
2017-04-05T12:47:30.085Z,50.1
2017-04-05T12:48:32.785Z,49.8
2017-04-05T12:49:35.492Z,49.6
2017-04-05T12:50:38.335Z,50
2017-04-05T12:51:41.429Z,50.1
2017-04-05T12:52:43.823Z,50.1
2017-04-05T12:53:46.222Z,50
2017-04-05T12:54:49.063Z,50
2017-04-05T12:55:51.768Z,49.7
2017-04-05T12:56:54.729Z,50.2
2017-04-05T12:57:57.066Z,49.5
2017-04-05T12:58:59.907Z,49.9
2017-04-05T13:00:02.659Z,50.1
2017-04-05T13:01:05.239Z,49.8
2017-04-05T13:02:08.333Z,49.8
2017-04-05T13:03:10.665Z,49.4
2017-04-05T13:04:13.373Z,48.7
2017-04-05T13:05:16.076Z,48.9
2017-04-05T13:06:18.914Z,48.8
2017-04-05T13:07:22.006Z,48.7
2017-04-05T13:08:24.345Z,48.7
2017-04-05T13:09:27.185Z,48.2
2017-04-05T13:10:30.451Z,48.3
2017-04-05T13:11:32.286Z,48.4
2017-04-05T13:13:38.164Z,48.7
2017-04-05T13:14:40.509Z,48.2
2017-04-05T13:15:43.350Z,48.7
2017-04-05T13:16:46.212Z,48.9
2017-04-05T13:17:48.600Z,48.9
2017-04-05T13:18:51.740Z,48.9
2017-04-05T13:19:54.076Z,49.2
2017-04-05T13:20:56.918Z,48.8
2017-04-05T13:21:59.758Z,48.9
2017-04-05T13:23:02.096Z,48.9
2017-04-05T13:24:05.243Z,48.6
2017-04-05T13:25:07.519Z,49.1
2017-04-05T13:26:10.360Z,49.2
2017-04-05T13:27:13.204Z,49.2
2017-04-05T13:28:16.045Z,49.3
2017-04-05T13:29:18.635Z,49.3
2017-04-05T13:30:21.341Z,49.3
2017-04-05T13:31:24.182Z,49.2
2017-04-05T13:32:27.028Z,49.5
2017-04-05T13:33:29.232Z,49.4
2017-04-05T13:34:32.190Z,49.8
2017-04-05T13:35:34.894Z,50.1
2017-04-05T13:36:37.597Z,49.5
2017-04-05T13:37:40.434Z,49.7
2017-04-05T13:38:43.196Z,50
2017-04-05T13:39:46.154Z,50.3
2017-04-05T13:40:48.499Z,50.2
2017-04-05T13:41:51.335Z,49.5
2017-04-05T13:42:54.173Z,49.6
2017-04-05T13:43:56.380Z,49.3
2017-04-05T13:44:59.478Z,49.9
2017-04-05T13:46:02.320Z,49.7
2017-04-05T13:47:04.667Z,50.1
2017-04-05T13:48:07.369Z,50
2017-04-05T13:49:10.074Z,50
2017-04-05T13:50:13.162Z,50.6
2017-04-05T13:51:15.909Z,50.9
2017-04-05T13:52:18.247Z,50.3
2017-04-05T13:53:21.088Z,50.8
2017-04-05T13:54:23.933Z,50.6
2017-04-05T13:55:27.025Z,49.6
2017-04-05T13:56:29.368Z,50
2017-04-05T13:57:32.207Z,49.5
2017-04-05T13:58:34.544Z,49.9
2017-04-05T13:59:37.386Z,49.4
2017-04-05T14:00:40.481Z,47.9
2017-04-05T14:01:42.820Z,48.5
2017-04-05T14:02:45.659Z,48.2
2017-04-05T14:03:48.358Z,48.1
2017-04-05T14:04:51.199Z,48.1
2017-04-05T14:05:53.800Z,48.2
2017-04-05T14:06:56.642Z,48.2
2017-04-05T14:07:58.983Z,48.1
2017-04-05T14:09:01.823Z,47.7
2017-04-05T14:10:04.666Z,48
2017-04-05T14:11:07.808Z,47.6
2017-04-05T14:13:12.784Z,47
2017-04-05T14:14:15.625Z,47.3
2017-04-05T14:15:18.464Z,47.1
2017-04-05T14:16:21.055Z,45.8
2017-04-05T14:17:23.768Z,46.3
2017-04-05T14:18:26.613Z,46.3
2017-04-05T14:19:28.816Z,45.9
2017-04-05T14:20:31.660Z,46.4
2017-04-05T14:21:34.804Z,46.3
2017-04-05T14:22:37.010Z,46.2
2017-04-05T14:23:39.777Z,45
2017-04-05T14:24:42.616Z,45.2
2017-04-05T14:25:45.459Z,44.9
2017-04-05T14:26:48.563Z,44.7
2017-04-05T14:27:50.767Z,45.1
2017-04-05T14:28:53.604Z,44.6
2017-04-05T14:29:56.450Z,44.4
2017-04-05T14:30:59.157Z,44.7
2017-04-05T14:32:02.262Z,45.1
2017-04-05T14:33:04.628Z,45
2017-04-05T14:34:07.468Z,44.9
2017-04-05T14:35:10.177Z,45
2017-04-05T14:36:13.080Z,45.2
2017-04-05T14:37:15.663Z,45.7
2017-04-05T14:38:17.996Z,45.7
2017-04-05T14:39:20.835Z,45.6
2017-04-05T14:40:23.684Z,45.8
2017-04-05T14:41:26.390Z,46.1
2017-04-05T14:42:29.483Z,45.9
2017-04-05T14:43:31.825Z,45.9
2017-04-05T14:44:34.668Z,46
2017-04-05T14:45:37.003Z,45.6
2017-04-05T14:46:39.840Z,45.7
2017-04-05T14:47:42.928Z,45.8
2017-04-05T14:48:44.997Z,46
2017-04-05T14:49:48.347Z,45.8
2017-04-05T14:50:51.051Z,45.5
2017-04-05T14:51:53.390Z,46.4
2017-04-05T14:52:56.348Z,46.7
2017-04-05T14:53:59.200Z,46.3
2017-04-05T14:55:01.553Z,46.9
2017-04-05T14:56:04.395Z,46.3
2017-04-05T14:57:07.239Z,46.7
2017-04-05T14:58:10.327Z,46.1
2017-04-05T14:59:12.532Z,46.5
2017-04-05T15:00:15.237Z,47.1
2017-04-05T15:01:17.949Z,47.2
2017-04-05T15:02:20.791Z,47.1
2017-04-05T15:03:23.885Z,47.4
2017-04-05T15:04:26.233Z,47.8
2017-04-05T15:05:29.084Z,48.1
2017-04-05T15:06:31.431Z,48.2
2017-04-05T15:07:34.134Z,48.6
2017-04-05T15:08:37.091Z,48.9
2017-04-05T15:09:39.793Z,48.9
2017-04-05T15:10:42.637Z,49.3
2017-04-05T15:11:45.483Z,49.5
2017-04-05T15:12:47.820Z,49.6
2017-04-05T15:13:50.918Z,49.7
2017-04-05T15:14:53.625Z,50.3
2017-04-05T15:15:55.963Z,50.4
2017-04-05T15:16:58.811Z,50.9
2017-04-05T15:18:01.650Z,51.1
2017-04-05T15:19:04.744Z,53.2
2017-04-05T15:20:07.083Z,53.5
2017-04-05T15:21:09.920Z,53.3
2017-04-05T15:22:12.257Z,53.4
2017-04-05T15:23:15.106Z,53.7
2017-04-05T15:24:18.201Z,54.5
2017-04-05T15:25:20.542Z,55.1
2017-04-05T15:26:23.382Z,55.3
2017-04-05T15:27:26.222Z,55.3
2017-04-05T15:28:28.562Z,55.6
2017-04-05T15:29:31.703Z,55.7
2017-04-05T15:30:33.909Z,55.8
2017-04-05T15:31:36.979Z,55.9
2017-04-05T15:32:39.817Z,56
2017-04-05T15:33:42.020Z,56.2
2017-04-05T15:34:45.117Z,56.4
2017-04-05T15:35:47.797Z,56.4
2017-04-05T15:36:50.504Z,56.4
2017-04-05T15:37:52.941Z,56.4
2017-04-05T15:38:55.786Z,56.7